sensor_id;sensor_type;location;lat;lon;timestamp;P1;durP1;ratioP1;P2;durP2;ratioP2
20545;SDS011;10431;50.228;9.112;2023-04-01T00:01:00;1.75;;;1.10;;
20545;SDS011;10431;50.228;9.112;2023-04-01T00:03:27;1.85;;;1.10;;
20545;SDS011;10431;50.228;9.112;2023-04-01T00:05:55;1.95;;;1.15;;
20545;SDS011;10431;50.228;9.112;2023-04-01T00:08:22;1.73;;;1.00;;
20545;SDS011;10431;50.228;9.112;2023-04-01T00:10:49;1.85;;;1.10;;
20545;SDS011;10431;50.228;9.112;2023-04-01T00:13:15;3.15;;;1.13;;
20545;SDS011;10431;50.228;9.112;2023-04-01T00:15:42;1.25;;;0.90;;
20545;SDS011;10431;50.228;9.112;2023-04-01T00:18:08;1.30;;;0.90;;
20545;SDS011;10431;50.228;9.112;2023-04-01T00:20:35;2.55;;;1.13;;
20545;SDS011;10431;50.228;9.112;2023-04-01T00:23:01;6.75;;;1.15;;
20545;SDS011;10431;50.228;9.112;2023-04-01T00:25:28;1.20;;;0.90;;
20545;SDS011;10431;50.228;9.112;2023-04-01T00:27:54;1.55;;;0.98;;
20545;SDS011;10431;50.228;9.112;2023-04-01T00:30:20;1.50;;;1.00;;
20545;SDS011;10431;50.228;9.112;2023-04-01T00:32:50;2.25;;;1.10;;
20545;SDS011;10431;50.228;9.112;2023-04-01T00:35:17;1.55;;;1.10;;
20545;SDS011;10431;50.228;9.112;2023-04-01T00:37:44;1.17;;;0.95;;
20545;SDS011;10431;50.228;9.112;2023-04-01T00:40:21;1.83;;;1.00;;
20545;SDS011;10431;50.228;9.112;2023-04-01T00:42:53;1.83;;;0.80;;
20545;SDS011;10431;50.228;9.112;2023-04-01T00:45:23;1.00;;;0.90;;
20545;SDS011;10431;50.228;9.112;2023-04-01T00:47:51;2.83;;;1.10;;
20545;SDS011;10431;50.228;9.112;2023-04-01T00:50:17;1.90;;;0.98;;
20545;SDS011;10431;50.228;9.112;2023-04-01T00:52:43;2.00;;;1.10;;
20545;SDS011;10431;50.228;9.112;2023-04-01T00:55:10;2.97;;;1.10;;
20545;SDS011;10431;50.228;9.112;2023-04-01T00:57:38;1.40;;;0.90;;
20545;SDS011;10431;50.228;9.112;2023-04-01T01:00:09;2.58;;;0.90;;
20545;SDS011;10431;50.228;9.112;2023-04-01T01:02:36;2.47;;;1.02;;
20545;SDS011;10431;50.228;9.112;2023-04-01T01:05:04;2.00;;;1.10;;
20545;SDS011;10431;50.228;9.112;2023-04-01T01:12:40;2.08;;;0.95;;
20545;SDS011;10431;50.228;9.112;2023-04-01T01:24:11;2.13;;;1.10;;
20545;SDS011;10431;50.228;9.112;2023-04-01T01:38:03;2.05;;;0.80;;
20545;SDS011;10431;50.228;9.112;2023-04-01T01:40:35;1.23;;;0.80;;
20545;SDS011;10431;50.228;9.112;2023-04-01T01:43:06;1.70;;;0.98;;
20545;SDS011;10431;50.228;9.112;2023-04-01T01:45:35;3.33;;;1.05;;
20545;SDS011;10431;50.228;9.112;2023-04-01T01:48:05;1.90;;;1.17;;
20545;SDS011;10431;50.228;9.112;2023-04-01T01:50:34;1.00;;;0.90;;
20545;SDS011;10431;50.228;9.112;2023-04-01T01:53:06;1.02;;;0.80;;
20545;SDS011;10431;50.228;9.112;2023-04-01T01:55:39;2.05;;;1.08;;
20545;SDS011;10431;50.228;9.112;2023-04-01T02:01:02;1.08;;;0.75;;
20545;SDS011;10431;50.228;9.112;2023-04-01T02:03:33;1.17;;;0.80;;
20545;SDS011;10431;50.228;9.112;2023-04-01T02:06:03;2.03;;;0.70;;
20545;SDS011;10431;50.228;9.112;2023-04-01T02:08:39;1.08;;;0.90;;
20545;SDS011;10431;50.228;9.112;2023-04-01T02:11:13;3.42;;;0.90;;
20545;SDS011;10431;50.228;9.112;2023-04-01T02:13:56;1.40;;;0.88;;
20545;SDS011;10431;50.228;9.112;2023-04-01T02:16:29;1.77;;;0.90;;
20545;SDS011;10431;50.228;9.112;2023-04-01T02:19:03;2.03;;;0.93;;
20545;SDS011;10431;50.228;9.112;2023-04-01T02:21:33;1.17;;;0.80;;
20545;SDS011;10431;50.228;9.112;2023-04-01T02:24:01;0.93;;;0.50;;
20545;SDS011;10431;50.228;9.112;2023-04-01T02:26:32;1.38;;;0.90;;
20545;SDS011;10431;50.228;9.112;2023-04-01T02:29:00;1.52;;;0.90;;
20545;SDS011;10431;50.228;9.112;2023-04-01T02:31:29;2.35;;;0.90;;
20545;SDS011;10431;50.228;9.112;2023-04-01T02:33:56;1.02;;;0.85;;
20545;SDS011;10431;50.228;9.112;2023-04-01T02:36:23;2.63;;;0.65;;
20545;SDS011;10431;50.228;9.112;2023-04-01T02:38:49;1.17;;;0.73;;
20545;SDS011;10431;50.228;9.112;2023-04-01T02:41:17;0.73;;;0.70;;
20545;SDS011;10431;50.228;9.112;2023-04-01T02:43:43;0.98;;;0.77;;
20545;SDS011;10431;50.228;9.112;2023-04-01T02:46:10;1.05;;;0.70;;
20545;SDS011;10431;50.228;9.112;2023-04-01T02:48:36;1.35;;;0.80;;
20545;SDS011;10431;50.228;9.112;2023-04-01T02:51:02;1.27;;;0.70;;
20545;SDS011;10431;50.228;9.112;2023-04-01T02:53:29;1.60;;;0.80;;
20545;SDS011;10431;50.228;9.112;2023-04-01T02:55:55;1.08;;;0.80;;
20545;SDS011;10431;50.228;9.112;2023-04-01T02:58:21;1.00;;;0.85;;
20545;SDS011;10431;50.228;9.112;2023-04-01T03:00:48;1.00;;;0.65;;
20545;SDS011;10431;50.228;9.112;2023-04-01T03:03:14;1.25;;;0.88;;
20545;SDS011;10431;50.228;9.112;2023-04-01T03:05:40;2.08;;;1.00;;
20545;SDS011;10431;50.228;9.112;2023-04-01T03:08:06;0.98;;;0.65;;
20545;SDS011;10431;50.228;9.112;2023-04-01T03:10:33;1.00;;;0.77;;
20545;SDS011;10431;50.228;9.112;2023-04-01T03:12:59;1.13;;;0.70;;
20545;SDS011;10431;50.228;9.112;2023-04-01T03:15:26;1.30;;;0.63;;
20545;SDS011;10431;50.228;9.112;2023-04-01T03:17:53;2.42;;;0.80;;
20545;SDS011;10431;50.228;9.112;2023-04-01T03:20:20;0.70;;;0.60;;
20545;SDS011;10431;50.228;9.112;2023-04-01T03:22:46;0.85;;;0.80;;
20545;SDS011;10431;50.228;9.112;2023-04-01T03:25:12;1.77;;;0.88;;
20545;SDS011;10431;50.228;9.112;2023-04-01T03:27:38;1.58;;;0.68;;
20545;SDS011;10431;50.228;9.112;2023-04-01T03:30:06;0.70;;;0.70;;
20545;SDS011;10431;50.228;9.112;2023-04-01T03:32:39;1.02;;;0.70;;
20545;SDS011;10431;50.228;9.112;2023-04-01T03:35:05;2.05;;;0.68;;
20545;SDS011;10431;50.228;9.112;2023-04-01T03:37:32;0.90;;;0.70;;
20545;SDS011;10431;50.228;9.112;2023-04-01T03:39:58;0.85;;;0.60;;
20545;SDS011;10431;50.228;9.112;2023-04-01T03:42:25;0.65;;;0.57;;
20545;SDS011;10431;50.228;9.112;2023-04-01T03:44:51;0.75;;;0.75;;
20545;SDS011;10431;50.228;9.112;2023-04-01T03:47:17;0.98;;;0.70;;
20545;SDS011;10431;50.228;9.112;2023-04-01T03:49:43;1.23;;;0.90;;
20545;SDS011;10431;50.228;9.112;2023-04-01T03:52:10;1.10;;;0.85;;
20545;SDS011;10431;50.228;9.112;2023-04-01T03:54:37;0.80;;;0.63;;
20545;SDS011;10431;50.228;9.112;2023-04-01T03:57:04;1.27;;;0.70;;
20545;SDS011;10431;50.228;9.112;2023-04-01T03:59:31;1.25;;;0.68;;
20545;SDS011;10431;50.228;9.112;2023-04-01T04:01:58;0.73;;;0.63;;
20545;SDS011;10431;50.228;9.112;2023-04-01T04:04:24;0.70;;;0.60;;
20545;SDS011;10431;50.228;9.112;2023-04-01T04:06:51;1.42;;;0.70;;
20545;SDS011;10431;50.228;9.112;2023-04-01T04:09:19;1.17;;;0.70;;
20545;SDS011;10431;50.228;9.112;2023-04-01T04:11:46;0.70;;;0.63;;
20545;SDS011;10431;50.228;9.112;2023-04-01T04:14:12;0.80;;;0.60;;
20545;SDS011;10431;50.228;9.112;2023-04-01T04:16:38;1.05;;;0.60;;
20545;SDS011;10431;50.228;9.112;2023-04-01T04:19:05;0.63;;;0.63;;
20545;SDS011;10431;50.228;9.112;2023-04-01T04:21:32;0.90;;;0.80;;
20545;SDS011;10431;50.228;9.112;2023-04-01T04:23:59;1.02;;;0.65;;
20545;SDS011;10431;50.228;9.112;2023-04-01T04:26:30;0.85;;;0.57;;
20545;SDS011;10431;50.228;9.112;2023-04-01T04:28:59;1.23;;;0.60;;
20545;SDS011;10431;50.228;9.112;2023-04-01T04:31:26;0.50;;;0.50;;
20545;SDS011;10431;50.228;9.112;2023-04-01T04:33:55;1.23;;;0.70;;
20545;SDS011;10431;50.228;9.112;2023-04-01T04:36:21;0.80;;;0.50;;
20545;SDS011;10431;50.228;9.112;2023-04-01T04:38:49;1.10;;;0.80;;
20545;SDS011;10431;50.228;9.112;2023-04-01T04:41:16;0.55;;;0.55;;
20545;SDS011;10431;50.228;9.112;2023-04-01T04:43:51;0.60;;;0.60;;
20545;SDS011;10431;50.228;9.112;2023-04-01T04:46:19;0.80;;;0.68;;
20545;SDS011;10431;50.228;9.112;2023-04-01T04:48:48;0.98;;;0.70;;
20545;SDS011;10431;50.228;9.112;2023-04-01T04:51:16;0.90;;;0.63;;
20545;SDS011;10431;50.228;9.112;2023-04-01T04:53:43;0.98;;;0.75;;
20545;SDS011;10431;50.228;9.112;2023-04-01T04:56:11;0.75;;;0.60;;
20545;SDS011;10431;50.228;9.112;2023-04-01T04:58:53;0.73;;;0.60;;
20545;SDS011;10431;50.228;9.112;2023-04-01T05:01:24;0.68;;;0.60;;
20545;SDS011;10431;50.228;9.112;2023-04-01T05:03:51;1.05;;;0.80;;
20545;SDS011;10431;50.228;9.112;2023-04-01T05:06:17;1.45;;;0.68;;
20545;SDS011;10431;50.228;9.112;2023-04-01T05:08:45;0.88;;;0.60;;
20545;SDS011;10431;50.228;9.112;2023-04-01T05:11:13;0.95;;;0.80;;
20545;SDS011;10431;50.228;9.112;2023-04-01T05:13:43;1.08;;;0.65;;
20545;SDS011;10431;50.228;9.112;2023-04-01T05:16:11;2.42;;;0.68;;
20545;SDS011;10431;50.228;9.112;2023-04-01T05:18:39;0.60;;;0.52;;
20545;SDS011;10431;50.228;9.112;2023-04-01T05:21:06;0.93;;;0.63;;
20545;SDS011;10431;50.228;9.112;2023-04-01T05:23:35;1.10;;;0.60;;
20545;SDS011;10431;50.228;9.112;2023-04-01T05:26:03;1.13;;;0.70;;
20545;SDS011;10431;50.228;9.112;2023-04-01T05:28:31;1.27;;;0.80;;
20545;SDS011;10431;50.228;9.112;2023-04-01T05:30:58;1.67;;;0.70;;
20545;SDS011;10431;50.228;9.112;2023-04-01T05:33:30;1.38;;;0.75;;
20545;SDS011;10431;50.228;9.112;2023-04-01T05:35:56;1.63;;;0.77;;
20545;SDS011;10431;50.228;9.112;2023-04-01T05:38:38;2.83;;;0.98;;
20545;SDS011;10431;50.228;9.112;2023-04-01T05:41:08;2.35;;;0.60;;
20545;SDS011;10431;50.228;9.112;2023-04-01T05:43:38;1.13;;;0.60;;
20545;SDS011;10431;50.228;9.112;2023-04-01T05:46:25;1.05;;;0.70;;
20545;SDS011;10431;50.228;9.112;2023-04-01T05:49:05;1.58;;;0.50;;
20545;SDS011;10431;50.228;9.112;2023-04-01T05:51:31;2.00;;;0.60;;
20545;SDS011;10431;50.228;9.112;2023-04-01T05:53:57;1.38;;;0.50;;
20545;SDS011;10431;50.228;9.112;2023-04-01T05:56:23;2.47;;;0.80;;
20545;SDS011;10431;50.228;9.112;2023-04-01T05:58:51;4.63;;;1.00;;
20545;SDS011;10431;50.228;9.112;2023-04-01T06:01:20;1.63;;;0.80;;
20545;SDS011;10431;50.228;9.112;2023-04-01T06:03:46;0.85;;;0.70;;
20545;SDS011;10431;50.228;9.112;2023-04-01T06:06:13;1.15;;;0.63;;
20545;SDS011;10431;50.228;9.112;2023-04-01T06:08:42;3.00;;;0.60;;
20545;SDS011;10431;50.228;9.112;2023-04-01T06:13:52;1.88;;;0.60;;
20545;SDS011;10431;50.228;9.112;2023-04-01T06:19:24;1.10;;;0.80;;
20545;SDS011;10431;50.228;9.112;2023-04-01T06:42:31;1.25;;;0.60;;
20545;SDS011;10431;50.228;9.112;2023-04-01T06:45:54;2.65;;;0.65;;
20545;SDS011;10431;50.228;9.112;2023-04-01T06:48:38;1.00;;;0.60;;
20545;SDS011;10431;50.228;9.112;2023-04-01T06:54:36;2.00;;;0.60;;
20545;SDS011;10431;50.228;9.112;2023-04-01T06:57:31;1.48;;;0.70;;
20545;SDS011;10431;50.228;9.112;2023-04-01T07:00:05;0.80;;;0.57;;
20545;SDS011;10431;50.228;9.112;2023-04-01T07:03:06;0.80;;;0.60;;
20545;SDS011;10431;50.228;9.112;2023-04-01T07:05:35;4.00;;;0.80;;
20545;SDS011;10431;50.228;9.112;2023-04-01T07:08:03;2.15;;;0.70;;
20545;SDS011;10431;50.228;9.112;2023-04-01T07:10:43;4.85;;;0.80;;
20545;SDS011;10431;50.228;9.112;2023-04-01T07:16:27;2.85;;;1.10;;
20545;SDS011;10431;50.228;9.112;2023-04-01T07:22:21;4.43;;;0.95;;
20545;SDS011;10431;50.228;9.112;2023-04-01T07:24:54;2.03;;;1.17;;
20545;SDS011;10431;50.228;9.112;2023-04-01T07:27:23;3.60;;;0.80;;
20545;SDS011;10431;50.228;9.112;2023-04-01T07:29:49;4.70;;;0.90;;
20545;SDS011;10431;50.228;9.112;2023-04-01T07:37:30;9.43;;;1.00;;
20545;SDS011;10431;50.228;9.112;2023-04-01T07:42:49;2.20;;;1.00;;
20545;SDS011;10431;50.228;9.112;2023-04-01T07:48:51;3.10;;;1.10;;
20545;SDS011;10431;50.228;9.112;2023-04-01T07:51:32;3.22;;;0.90;;
20545;SDS011;10431;50.228;9.112;2023-04-01T07:54:20;3.88;;;1.05;;
20545;SDS011;10431;50.228;9.112;2023-04-01T07:57:05;3.47;;;0.77;;
20545;SDS011;10431;50.228;9.112;2023-04-01T08:14:03;4.85;;;1.10;;
20545;SDS011;10431;50.228;9.112;2023-04-01T08:19:49;2.25;;;0.90;;
20545;SDS011;10431;50.228;9.112;2023-04-01T08:22:48;2.08;;;0.88;;
20545;SDS011;10431;50.228;9.112;2023-04-01T08:25:28;1.08;;;0.65;;
20545;SDS011;10431;50.228;9.112;2023-04-01T08:27:59;2.10;;;0.80;;
20545;SDS011;10431;50.228;9.112;2023-04-01T08:33:24;2.58;;;1.00;;
20545;SDS011;10431;50.228;9.112;2023-04-01T08:39:17;3.35;;;0.90;;
20545;SDS011;10431;50.228;9.112;2023-04-01T08:47:54;6.93;;;0.90;;
20545;SDS011;10431;50.228;9.112;2023-04-01T08:59:34;6.38;;;1.15;;
20545;SDS011;10431;50.228;9.112;2023-04-01T09:05:29;8.68;;;1.00;;
20545;SDS011;10431;50.228;9.112;2023-04-01T09:14:01;7.32;;;1.05;;
20545;SDS011;10431;50.228;9.112;2023-04-01T09:20:02;7.50;;;1.20;;
20545;SDS011;10431;50.228;9.112;2023-04-01T09:35:21;6.35;;;1.30;;
20545;SDS011;10431;50.228;9.112;2023-04-01T09:38:17;8.95;;;1.23;;
20545;SDS011;10431;50.228;9.112;2023-04-01T09:43:25;4.22;;;0.90;;
20545;SDS011;10431;50.228;9.112;2023-04-01T09:46:14;5.38;;;1.20;;
20545;SDS011;10431;50.228;9.112;2023-04-01T09:51:47;3.63;;;0.90;;
20545;SDS011;10431;50.228;9.112;2023-04-01T09:54:23;3.63;;;0.93;;
20545;SDS011;10431;50.228;9.112;2023-04-01T09:57:22;2.78;;;0.98;;
20545;SDS011;10431;50.228;9.112;2023-04-01T10:00:37;2.78;;;1.00;;
20545;SDS011;10431;50.228;9.112;2023-04-01T10:20:44;6.13;;;1.20;;
20545;SDS011;10431;50.228;9.112;2023-04-01T10:23:37;6.07;;;1.27;;
20545;SDS011;10431;50.228;9.112;2023-04-01T10:52:43;5.35;;;1.95;;
20545;SDS011;10431;50.228;9.112;2023-04-01T11:40:05;5.80;;;1.80;;
20545;SDS011;10431;50.228;9.112;2023-04-01T11:43:19;5.32;;;1.70;;
20545;SDS011;10431;50.228;9.112;2023-04-01T11:46:20;5.18;;;2.10;;
20545;SDS011;10431;50.228;9.112;2023-04-01T11:49:33;5.32;;;1.42;;
20545;SDS011;10431;50.228;9.112;2023-04-01T12:01:13;8.40;;;1.95;;
20545;SDS011;10431;50.228;9.112;2023-04-01T12:03:56;6.07;;;1.90;;
20545;SDS011;10431;50.228;9.112;2023-04-01T12:06:44;5.20;;;1.52;;
20545;SDS011;10431;50.228;9.112;2023-04-01T12:13:02;7.15;;;1.55;;
20545;SDS011;10431;50.228;9.112;2023-04-01T12:21:17;9.93;;;1.98;;
20545;SDS011;10431;50.228;9.112;2023-04-01T12:26:39;8.02;;;2.17;;
20545;SDS011;10431;50.228;9.112;2023-04-01T12:32:23;7.88;;;2.00;;
20545;SDS011;10431;50.228;9.112;2023-04-01T12:34:57;6.57;;;1.70;;
20545;SDS011;10431;50.228;9.112;2023-04-01T13:08:57;6.63;;;1.60;;
20545;SDS011;10431;50.228;9.112;2023-04-01T13:11:55;4.95;;;1.17;;
20545;SDS011;10431;50.228;9.112;2023-04-01T13:20:35;8.77;;;1.80;;
20545;SDS011;10431;50.228;9.112;2023-04-01T13:28:58;6.38;;;2.25;;
20545;SDS011;10431;50.228;9.112;2023-04-01T13:40:20;9.40;;;2.53;;
20545;SDS011;10431;50.228;9.112;2023-04-01T13:42:49;8.52;;;2.70;;
20545;SDS011;10431;50.228;9.112;2023-04-01T13:55:49;11.02;;;2.17;;
20545;SDS011;10431;50.228;9.112;2023-04-01T13:58:38;12.00;;;2.03;;
20545;SDS011;10431;50.228;9.112;2023-04-01T14:03:54;13.55;;;2.28;;
20545;SDS011;10431;50.228;9.112;2023-04-01T14:09:25;6.03;;;1.95;;
20545;SDS011;10431;50.228;9.112;2023-04-01T14:12:12;7.90;;;2.10;;
20545;SDS011;10431;50.228;9.112;2023-04-01T14:20:57;6.15;;;1.40;;
20545;SDS011;10431;50.228;9.112;2023-04-01T14:43:10;7.13;;;1.48;;
20545;SDS011;10431;50.228;9.112;2023-04-01T14:48:39;10.43;;;2.03;;
20545;SDS011;10431;50.228;9.112;2023-04-01T14:54:06;10.10;;;1.83;;
20545;SDS011;10431;50.228;9.112;2023-04-01T14:59:49;13.50;;;1.80;;
20545;SDS011;10431;50.228;9.112;2023-04-01T15:05:00;7.70;;;1.70;;
20545;SDS011;10431;50.228;9.112;2023-04-01T15:18:38;5.60;;;1.58;;
20545;SDS011;10431;50.228;9.112;2023-04-01T15:24:03;6.90;;;1.30;;
20545;SDS011;10431;50.228;9.112;2023-04-01T15:40:49;6.43;;;1.23;;
20545;SDS011;10431;50.228;9.112;2023-04-01T15:43:40;9.25;;;1.40;;
20545;SDS011;10431;50.228;9.112;2023-04-01T15:52:39;5.65;;;1.30;;
20545;SDS011;10431;50.228;9.112;2023-04-01T16:09:16;5.13;;;1.30;;
20545;SDS011;10431;50.228;9.112;2023-04-01T16:12:01;5.30;;;1.27;;
20545;SDS011;10431;50.228;9.112;2023-04-01T16:14:44;4.15;;;1.15;;
20545;SDS011;10431;50.228;9.112;2023-04-01T16:17:32;7.57;;;1.17;;
20545;SDS011;10431;50.228;9.112;2023-04-01T16:20:20;8.55;;;1.20;;
20545;SDS011;10431;50.228;9.112;2023-04-01T16:25:54;7.10;;;1.02;;
20545;SDS011;10431;50.228;9.112;2023-04-01T16:28:32;4.93;;;1.30;;
20545;SDS011;10431;50.228;9.112;2023-04-01T16:31:15;4.53;;;1.10;;
20545;SDS011;10431;50.228;9.112;2023-04-01T16:34:16;8.45;;;1.10;;
20545;SDS011;10431;50.228;9.112;2023-04-01T16:36:52;5.93;;;0.95;;
20545;SDS011;10431;50.228;9.112;2023-04-01T16:47:35;5.40;;;0.88;;
20545;SDS011;10431;50.228;9.112;2023-04-01T16:50:13;3.60;;;0.98;;
20545;SDS011;10431;50.228;9.112;2023-04-01T16:52:57;8.25;;;1.48;;
20545;SDS011;10431;50.228;9.112;2023-04-01T16:55:34;4.00;;;1.23;;
20545;SDS011;10431;50.228;9.112;2023-04-01T16:58:10;4.57;;;1.25;;
20545;SDS011;10431;50.228;9.112;2023-04-01T17:00:50;4.13;;;0.90;;
20545;SDS011;10431;50.228;9.112;2023-04-01T17:03:28;2.20;;;1.08;;
20545;SDS011;10431;50.228;9.112;2023-04-01T17:14:28;3.15;;;1.00;;
20545;SDS011;10431;50.228;9.112;2023-04-01T17:16:59;2.30;;;0.90;;
20545;SDS011;10431;50.228;9.112;2023-04-01T17:19:55;3.53;;;0.90;;
20545;SDS011;10431;50.228;9.112;2023-04-01T17:30:56;3.15;;;1.25;;
20545;SDS011;10431;50.228;9.112;2023-04-01T17:42:18;9.10;;;1.38;;
20545;SDS011;10431;50.228;9.112;2023-04-01T17:45:07;4.20;;;0.93;;
20545;SDS011;10431;50.228;9.112;2023-04-01T17:47:49;6.32;;;1.00;;
20545;SDS011;10431;50.228;9.112;2023-04-01T17:58:45;5.57;;;1.35;;
20545;SDS011;10431;50.228;9.112;2023-04-01T18:09:36;3.22;;;0.80;;
20545;SDS011;10431;50.228;9.112;2023-04-01T18:23:41;4.57;;;1.00;;
20545;SDS011;10431;50.228;9.112;2023-04-01T18:26:23;1.75;;;0.80;;
20545;SDS011;10431;50.228;9.112;2023-04-01T18:31:47;1.90;;;1.00;;
20545;SDS011;10431;50.228;9.112;2023-04-01T18:37:01;3.05;;;0.85;;
20545;SDS011;10431;50.228;9.112;2023-04-01T18:40:34;3.83;;;1.00;;
20545;SDS011;10431;50.228;9.112;2023-04-01T18:45:58;4.05;;;1.00;;
20545;SDS011;10431;50.228;9.112;2023-04-01T18:51:47;2.22;;;0.95;;
20545;SDS011;10431;50.228;9.112;2023-04-01T18:54:32;3.05;;;0.80;;
20545;SDS011;10431;50.228;9.112;2023-04-01T18:57:10;8.98;;;1.30;;
20545;SDS011;10431;50.228;9.112;2023-04-01T18:59:50;5.82;;;0.88;;
20545;SDS011;10431;50.228;9.112;2023-04-01T19:05:02;2.97;;;0.80;;
20545;SDS011;10431;50.228;9.112;2023-04-01T19:10:14;3.97;;;0.90;;
20545;SDS011;10431;50.228;9.112;2023-04-01T19:15:44;2.13;;;0.90;;
20545;SDS011;10431;50.228;9.112;2023-04-01T19:26:40;3.50;;;0.68;;
20545;SDS011;10431;50.228;9.112;2023-04-01T19:29:18;5.53;;;0.98;;
20545;SDS011;10431;50.228;9.112;2023-04-01T19:37:19;2.30;;;0.95;;
20545;SDS011;10431;50.228;9.112;2023-04-01T19:47:44;3.97;;;0.80;;
20545;SDS011;10431;50.228;9.112;2023-04-01T19:50:40;1.60;;;0.70;;
20545;SDS011;10431;50.228;9.112;2023-04-01T19:56:00;4.70;;;0.90;;
20545;SDS011;10431;50.228;9.112;2023-04-01T19:58:33;2.58;;;0.88;;
20545;SDS011;10431;50.228;9.112;2023-04-01T20:01:13;1.17;;;0.70;;
20545;SDS011;10431;50.228;9.112;2023-04-01T20:03:55;2.65;;;0.77;;
20545;SDS011;10431;50.228;9.112;2023-04-01T20:06:35;2.67;;;0.80;;
20545;SDS011;10431;50.228;9.112;2023-04-01T20:12:25;2.58;;;0.68;;
20545;SDS011;10431;50.228;9.112;2023-04-01T20:14:57;2.50;;;0.80;;
20545;SDS011;10431;50.228;9.112;2023-04-01T20:17:26;4.93;;;1.00;;
20545;SDS011;10431;50.228;9.112;2023-04-01T20:27:53;3.03;;;0.82;;
20545;SDS011;10431;50.228;9.112;2023-04-01T20:33:43;7.55;;;1.05;;
20545;SDS011;10431;50.228;9.112;2023-04-01T20:43:48;7.38;;;0.90;;
20545;SDS011;10431;50.228;9.112;2023-04-01T20:46:46;4.22;;;1.10;;
20545;SDS011;10431;50.228;9.112;2023-04-01T20:54:45;4.85;;;1.10;;
20545;SDS011;10431;50.228;9.112;2023-04-01T20:57:45;5.20;;;1.10;;
20545;SDS011;10431;50.228;9.112;2023-04-01T21:00:24;2.67;;;0.77;;
20545;SDS011;10431;50.228;9.112;2023-04-01T21:22:58;2.45;;;0.77;;
20545;SDS011;10431;50.228;9.112;2023-04-01T21:31:45;1.33;;;0.90;;
20545;SDS011;10431;50.228;9.112;2023-04-01T21:46:10;1.58;;;0.80;;
20545;SDS011;10431;50.228;9.112;2023-04-01T22:05:41;1.42;;;0.73;;
20545;SDS011;10431;50.228;9.112;2023-04-01T22:08:50;2.80;;;0.73;;
20545;SDS011;10431;50.228;9.112;2023-04-01T22:14:21;2.85;;;0.90;;
20545;SDS011;10431;50.228;9.112;2023-04-01T22:17:08;2.22;;;0.70;;
20545;SDS011;10431;50.228;9.112;2023-04-01T22:20:06;1.67;;;0.80;;
20545;SDS011;10431;50.228;9.112;2023-04-01T22:31:34;3.47;;;0.85;;
20545;SDS011;10431;50.228;9.112;2023-04-01T22:43:08;3.95;;;0.85;;
20545;SDS011;10431;50.228;9.112;2023-04-01T22:45:48;1.17;;;0.60;;
20545;SDS011;10431;50.228;9.112;2023-04-01T22:48:19;1.13;;;0.90;;
20545;SDS011;10431;50.228;9.112;2023-04-01T22:51:10;2.67;;;0.63;;
20545;SDS011;10431;50.228;9.112;2023-04-01T22:54:11;4.68;;;0.70;;
20545;SDS011;10431;50.228;9.112;2023-04-01T23:02:47;2.10;;;0.82;;
20545;SDS011;10431;50.228;9.112;2023-04-01T23:05:29;1.20;;;0.77;;
20545;SDS011;10431;50.228;9.112;2023-04-01T23:08:03;2.35;;;0.70;;
20545;SDS011;10431;50.228;9.112;2023-04-01T23:10:56;0.93;;;0.60;;
20545;SDS011;10431;50.228;9.112;2023-04-01T23:13:31;0.93;;;0.50;;
20545;SDS011;10431;50.228;9.112;2023-04-01T23:16:03;1.95;;;0.55;;
20545;SDS011;10431;50.228;9.112;2023-04-01T23:18:35;1.08;;;0.50;;
20545;SDS011;10431;50.228;9.112;2023-04-01T23:26:30;0.57;;;0.57;;
20545;SDS011;10431;50.228;9.112;2023-04-01T23:29:07;0.82;;;0.43;;
20545;SDS011;10431;50.228;9.112;2023-04-01T23:31:46;0.80;;;0.50;;
20545;SDS011;10431;50.228;9.112;2023-04-01T23:34:27;1.23;;;0.65;;
20545;SDS011;10431;50.228;9.112;2023-04-01T23:37:01;2.33;;;0.60;;
20545;SDS011;10431;50.228;9.112;2023-04-01T23:42:18;0.90;;;0.50;;
20545;SDS011;10431;50.228;9.112;2023-04-01T23:44:48;1.02;;;0.70;;
20545;SDS011;10431;50.228;9.112;2023-04-01T23:47:17;1.67;;;0.60;;
20545;SDS011;10431;50.228;9.112;2023-04-01T23:49:51;1.13;;;0.60;;
20545;SDS011;10431;50.228;9.112;2023-04-01T23:52:27;2.85;;;0.60;;
20545;SDS011;10431;50.228;9.112;2023-04-01T23:54:57;0.60;;;0.60;;
20545;SDS011;10431;50.228;9.112;2023-04-01T23:58:00;1.17;;;0.70;;
